Campina Verde, Brazil
Current Conditions -  °F | °C
As of 7:00 AM on Monday 22 Dec 2014 (Local Time) from SBSR Reporting Station
Broken Clouds Broken Clouds  
Wind Chill: 73°   Ceiling: 7000
Heat Index: 73°   Visibility: 6mi
Dew Point: 70°   Wind: 5mph
Humidity: 88%   Direction: 50°NE
Pressure: 29.94"   Gusts: NA
Location:  19.54°S, 49.49°W
Report Text: SBSR 220900Z 05004KT 9999 FEW008 SCT010 BKN070 23/21 Q1014
Loading
Personal Weather Stations






























Interactive Weather Map New forecast layout! Learn more

10-Day Weather Forecast

Advertisements
Track Severe Weather on mobile